Terminal Aerodrome Forecast
Issued by NWS

Home | Current Version | Previous Version | Text Only | Print | Product List | Glossary On
Versions: 1 2 3 4 5 6 7 8 9 10 11 12 13 14 15 16 17 18 19
913
FTUS43 KGRR 221721
TAFLAN
TAF
KLAN 221721Z 2218/2318 01008KT P6SM SKC
     FM222000 06004KT P6SM SCT050
     FM230000 04004KT P6SM SKC
     FM230600 14003KT P6SM BKN250
     FM231000 15004KT P6SM OVC120=

USA.gov is the U.S. government's official web portal to all federal, state and local government web resources and services.